Time;durP1;ratioP1;P1;durP2;ratioP2;P2;SDS_P1;SDS_P2;PMS_P1;PMS_P2;Temp;Humidity;BMP_temperature;BMP_pressure;BME280_temperature;BME280_humidity;BME280_pressure;Samples;Min_cycle;Max_cycle;Signal;HPM_P1;HPM_P2
2022/08/14 00:00:26;;;;;;;11.65;6.15;;;;;;;22.64;53.93;99473.52;1746501;80;21758;-81
2022/08/14 00:03:35;;;;;;;11.12;5.95;;;;;;;22.63;53.99;99462.92;1781355;80;22029;-81
2022/08/14 00:06:40;;;;;;;14.07;5.28;;;;;;;22.73;53.87;99479.38;1782201;80;21189;-81
2022/08/14 00:09:48;;;;;;;19.50;5.83;;;;;;;22.70;54.04;99477.41;1782522;80;21158;-81
2022/08/14 00:13:00;;;;;;;15.80;5.53;;;;;;;22.70;54.22;99480.76;1781579;80;21196;-81
2022/08/14 00:16:09;;;;;;;16.50;5.72;;;;;;;22.67;54.41;99479.91;1782451;80;21232;-81
2022/08/14 00:19:16;;;;;;;11.20;5.50;;;;;;;22.64;54.55;99479.92;1782297;80;21158;-81
2022/08/14 00:22:24;;;;;;;15.45;5.95;;;;;;;22.63;54.77;99474.59;1782152;80;21761;-81
2022/08/14 00:25:30;;;;;;;9.40;5.53;;;;;;;22.64;54.74;99477.13;1780485;80;21149;-81
2022/08/14 00:28:38;;;;;;;11.18;5.55;;;;;;;22.64;54.81;99470.16;1770771;81;21177;-81
2022/08/14 00:31:44;;;;;;;18.10;6.92;;;;;;;22.65;54.87;99473.23;1772135;81;21142;-81
2022/08/14 00:34:52;;;;;;;11.03;5.37;;;;;;;22.67;54.91;99461.79;1772370;81;21160;-80
2022/08/14 00:37:58;;;;;;;15.78;5.25;;;;;;;22.64;55.11;99470.16;1770981;81;21173;-82
2022/08/14 00:41:06;;;;;;;12.07;5.75;;;;;;;22.64;55.14;99470.72;1772246;81;21113;-82
2022/08/14 00:44:12;;;;;;;8.95;5.45;;;;;;;22.68;55.23;99464.32;1772238;81;21150;-82
2022/08/14 00:47:23;;;;;;;12.80;5.67;;;;;;;22.68;55.21;99471.85;1770430;81;21719;-83
2022/08/14 00:50:29;;;;;;;17.12;5.30;;;;;;;22.68;55.34;99459.31;1749884;81;21196;-82
2022/08/14 00:53:35;;;;;;;17.55;5.20;;;;;;;22.70;55.26;99459.30;1770837;81;21208;-81
2022/08/14 00:56:42;;;;;;;14.53;6.10;;;;;;;22.70;55.43;99456.51;1772178;81;21483;-82
2022/08/14 00:59:48;;;;;;;21.65;6.03;;;;;;;22.72;55.48;99465.98;1770970;81;21189;-81
2022/08/14 01:02:55;;;;;;;13.85;5.33;;;;;;;22.77;55.60;99463.19;1771405;81;21731;-81
2022/08/14 01:06:00;;;;;;;6.80;4.90;;;;;;;22.77;55.63;99463.75;1770700;81;21162;-82
2022/08/14 01:09:07;;;;;;;15.83;6.08;;;;;;;22.79;55.58;99465.72;1771048;81;21701;-81
2022/08/14 01:12:13;;;;;;;8.75;4.67;;;;;;;22.81;55.74;99457.91;1772209;81;21185;-81
2022/08/14 01:15:20;;;;;;;11.43;5.85;;;;;;;22.79;55.82;99455.97;1771184;81;21220;-81
2022/08/14 01:21:53;;;;;;;12.37;6.08;;;;;;;22.86;55.47;99457.34;1772261;81;21158;-82
2022/08/14 01:25:00;;;;;;;15.23;5.15;;;;;;;22.91;55.49;99463.52;1772289;81;21719;-81
2022/08/14 01:28:06;;;;;;;17.95;5.40;;;;;;;22.92;55.60;99460.47;1771831;80;21157;-81
2022/08/14 01:31:21;;;;;;;15.15;5.50;;;;;;;22.93;55.58;99459.35;1771158;81;21224;-80
2022/08/14 01:34:27;;;;;;;11.30;5.42;;;;;;;22.95;55.54;99460.45;1772343;81;21161;-80
2022/08/14 01:37:34;;;;;;;10.82;5.22;;;;;;;23.00;55.54;99448.47;1771480;81;21189;-81
2022/08/14 01:40:42;;;;;;;11.08;5.67;;;;;;;23.03;55.41;99454.89;1772233;81;21164;-81
2022/08/14 01:44:03;;;;;;;8.25;5.33;;;;;;;23.03;55.24;99447.36;1770759;81;21185;-81
2022/08/14 01:47:14;;;;;;;9.88;5.28;;;;;;;23.05;55.22;99454.88;1770632;81;21162;-81
2022/08/14 01:50:21;;;;;;;14.55;5.08;;;;;;;23.03;55.30;99441.78;1772258;81;21667;-81
2022/08/14 01:53:28;;;;;;;8.50;5.50;;;;;;;23.01;55.46;99441.24;1771242;81;21193;-80
2022/08/14 01:56:38;;;;;;;14.75;5.33;;;;;;;22.95;55.64;99438.98;1772180;81;21126;-81
2022/08/14 01:59:45;;;;;;;10.93;5.10;;;;;;;22.89;55.87;99442.89;1771759;81;21190;-81
2022/08/14 02:02:51;;;;;;;11.85;4.90;;;;;;;22.83;56.21;99448.17;1771591;81;21185;-81
2022/08/14 02:05:58;;;;;;;10.85;4.50;;;;;;;22.78;56.40;99444.55;1772227;81;21153;-81
2022/08/14 02:09:05;;;;;;;14.07;5.40;;;;;;;22.75;56.51;99452.06;1771204;81;21150;-80
2022/08/14 02:12:16;;;;;;;9.93;5.72;;;;;;;22.70;56.69;99448.15;1772076;81;21777;-80
2022/08/14 02:15:23;;;;;;;8.03;4.55;;;;;;;22.65;56.98;99449.53;1772169;81;21178;-80
2022/08/14 02:18:29;;;;;;;16.20;5.90;;;;;;;22.58;57.29;99450.34;1771090;81;21189;-81
2022/08/14 02:21:36;;;;;;;12.75;5.75;;;;;;;22.52;57.66;99457.03;1772247;81;21735;-81
2022/08/14 02:24:43;;;;;;;13.45;5.28;;;;;;;22.48;57.96;99457.86;1772227;81;21162;-81
2022/08/14 02:27:50;;;;;;;8.48;5.03;;;;;;;22.42;58.18;99456.45;1772311;80;21178;-80
2022/08/14 02:30:57;;;;;;;22.52;5.90;;;;;;;22.38;58.53;99460.89;1771849;81;21177;-80
2022/08/14 02:34:12;;;;;;;11.55;5.20;;;;;;;22.37;58.72;99459.78;1770811;81;21722;-81
2022/08/14 02:37:20;;;;;;;10.98;4.37;;;;;;;22.36;58.80;99456.17;1771895;81;21252;-81
2022/08/14 02:40:30;;;;;;;13.20;4.87;;;;;;;22.37;58.72;99457.00;1770630;81;21232;-81
2022/08/14 02:43:35;;;;;;;15.55;5.47;;;;;;;22.41;58.74;99455.34;1770934;81;21208;-81
2022/08/14 02:46:46;;;;;;;17.32;5.95;;;;;;;22.42;58.66;99461.19;1770927;81;21680;-81
2022/08/14 02:49:54;;;;;;;11.28;5.53;;;;;;;22.43;58.66;99458.68;1770839;81;21173;-81
2022/08/14 02:53:00;;;;;;;13.35;5.08;;;;;;;22.41;58.74;99460.36;1770759;81;21173;-81
2022/08/14 02:56:00;;;;;;;7.35;5.33;;;;;;;22.42;58.72;99463.42;1772391;81;21161;-81
2022/08/14 02:59:08;;;;;;;11.48;5.33;;;;;;;22.45;58.71;99469.02;1771671;81;21197;-81
2022/08/14 03:02:16;;;;;;;7.58;4.95;;;;;;;22.49;58.61;99459.52;1767196;81;21173;-81
2022/08/14 03:05:17;;;;;;;7.67;5.25;;;;;;;22.55;58.56;99456.49;1740303;82;21162;-80
2022/08/14 03:08:19;;;;;;;11.93;5.08;;;;;;;22.59;58.47;99453.44;1739690;82;21177;-81
2022/08/14 03:11:09;;;;;;;18.00;5.37;;;;;;;22.67;58.29;99447.86;1740612;82;21166;-81
2022/08/14 03:14:03;;;;;;;8.38;5.30;;;;;;;22.67;58.24;99447.30;1740796;82;21178;-82
2022/08/14 03:16:49;;;;;;;12.75;4.87;;;;;;;22.69;58.22;99455.40;1739793;81;21264;-81
2022/08/14 03:19:42;;;;;;;11.30;5.42;;;;;;;22.69;58.33;99444.25;1729147;83;21208;-81
2022/08/14 03:22:28;;;;;;;21.60;6.25;;;;;;;22.67;58.46;99436.14;1729396;83;21511;-81
2022/08/14 03:25:22;;;;;;;12.88;5.42;;;;;;;22.66;58.58;99441.45;1729585;83;21160;-81
2022/08/14 03:28:31;;;;;;;9.48;4.87;;;;;;;22.68;58.63;99443.98;1731424;82;21259;-81
2022/08/14 03:31:39;;;;;;;10.93;5.53;;;;;;;22.69;58.52;99434.50;1753985;82;21147;-81
2022/08/14 03:34:46;;;;;;;9.40;4.83;;;;;;;22.69;58.62;99426.13;1767184;81;21195;-81
2022/08/14 03:37:54;;;;;;;12.33;5.20;;;;;;;22.73;58.47;99436.18;1766412;81;21199;-81
2022/08/14 03:41:01;;;;;;;11.95;5.15;;;;;;;22.73;58.33;99427.26;1765362;81;21657;-82
2022/08/14 03:44:10;;;;;;;10.05;4.97;;;;;;;22.73;58.42;99423.64;1766824;81;21172;-81
2022/08/14 03:47:18;;;;;;;17.55;5.67;;;;;;;22.70;58.41;99425.84;1769665;80;21180;-81
2022/08/14 03:50:27;;;;;;;8.28;5.55;;;;;;;22.72;58.19;99424.17;1783580;80;21158;-81
2022/08/14 03:53:34;;;;;;;15.45;5.22;;;;;;;22.73;57.88;99422.24;1783397;80;21279;-81
2022/08/14 03:56:43;;;;;;;11.08;5.37;;;;;;;22.77;57.79;99423.33;1784678;80;21266;-81
2022/08/14 03:59:51;;;;;;;7.00;4.87;;;;;;;22.81;57.25;99427.24;1784497;80;21752;-81
2022/08/14 04:02:59;;;;;;;15.88;6.22;;;;;;;22.86;56.83;99429.47;1783860;80;21157;-80
2022/08/14 04:05:58;;;;;;;7.55;4.92;;;;;;;22.92;56.68;99422.00;1784642;80;21777;-81
2022/08/14 04:08:52;;;;;;;10.10;4.62;;;;;;;23.01;56.38;99424.50;1783355;80;21200;-81
2022/08/14 04:11:40;;;;;;;11.78;5.10;;;;;;;23.07;56.22;99421.98;1783618;80;21173;-80
2022/08/14 04:14:32;;;;;;;7.60;4.80;;;;;;;23.17;55.95;99424.76;1784765;80;21157;-81
2022/08/14 04:17:20;;;;;;;9.53;5.22;;;;;;;23.31;55.31;99429.77;1784578;80;21777;-81
2022/08/14 04:20:16;;;;;;;9.90;5.10;;;;;;;23.40;54.71;99431.70;1783302;80;21256;-81
2022/08/14 04:23:05;;;;;;;8.40;5.00;;;;;;;23.49;53.85;99436.16;1783818;80;21236;-81
2022/08/14 04:26:00;;;;;;;19.42;5.62;;;;;;;23.60;52.93;99433.60;1784788;80;21207;-81
2022/08/14 04:29:02;;;;;;;12.82;4.72;;;;;;;23.79;52.31;99426.88;1784929;80;21227;-81
2022/08/14 04:32:08;;;;;;;11.18;5.53;;;;;;;23.98;51.44;99429.31;1773847;80;21225;-81
2022/08/14 04:35:16;;;;;;;17.17;5.40;;;;;;;24.14;51.06;99439.04;1747567;80;21194;-82
2022/08/14 04:45:13;;;;;;;11.33;4.72;;;;;;;24.74;48.91;99423.02;1748408;82;21174;-81
2022/08/14 04:48:22;;;;;;;12.53;4.40;;;;;;;24.85;48.88;99436.39;1747288;80;21266;-81
2022/08/14 04:51:31;;;;;;;8.83;4.55;;;;;;;24.89;48.36;99431.31;1747117;82;21168;-81
2022/08/14 04:54:38;;;;;;;10.18;4.80;;;;;;;24.91;47.77;99443.59;1747486;82;21175;-81
2022/08/14 04:57:46;;;;;;;17.37;5.45;;;;;;;24.88;47.31;99419.00;1748278;82;21187;-80
2022/08/14 05:00:53;;;;;;;18.57;5.35;;;;;;;24.92;47.44;99422.32;1746988;82;21262;-80
2022/08/14 05:03:59;;;;;;;12.60;5.03;;;;;;;25.06;47.01;99418.85;1775754;80;21197;-81
2022/08/14 05:07:05;;;;;;;19.40;5.15;;;;;;;25.12;46.22;99418.53;1780331;80;21243;-81
2022/08/14 05:10:13;;;;;;;11.25;4.60;;;;;;;25.26;45.75;99417.86;1779744;80;21694;-81
2022/08/14 05:13:21;;;;;;;12.63;4.72;;;;;;;25.43;45.19;99440.08;1779459;80;21684;-81
2022/08/14 05:16:29;;;;;;;19.87;5.92;;;;;;;25.59;45.12;99430.11;1780365;80;21169;-81
2022/08/14 05:19:31;;;;;;;13.78;5.42;;;;;;;25.76;44.68;99436.69;1779890;80;21173;-81
2022/08/14 05:22:33;;;;;;;20.92;5.15;;;;;;;25.94;44.71;99421.91;1778748;80;21232;-81
2022/08/14 05:25:39;;;;;;;13.93;4.42;;;;;;;26.09;43.51;99425.91;1780401;80;21212;-81
2022/08/14 05:28:48;;;;;;;15.13;5.08;;;;;;;26.21;43.32;99435.29;1779095;80;21196;-82
2022/08/14 05:31:59;;;;;;;13.30;5.55;;;;;;;26.26;42.56;99432.41;1782093;80;21205;-82
2022/08/14 05:35:02;;;;;;;22.73;5.22;;;;;;;26.31;43.24;99443.55;1785287;80;21239;-82
2022/08/14 05:38:10;;;;;;;16.02;5.08;;;;;;;26.43;42.82;99445.93;1784963;80;21208;-81
2022/08/14 05:41:20;;;;;;;14.55;4.85;;;;;;;26.53;42.39;99444.37;1748649;82;21176;-81
2022/08/14 05:44:26;;;;;;;25.45;5.05;;;;;;;26.54;42.18;99450.28;1746615;82;21160;-81
2022/08/14 05:47:33;;;;;;;19.05;5.55;;;;;;;26.50;41.79;99443.59;1747323;82;21482;-81
2022/08/14 05:50:42;;;;;;;14.13;4.50;;;;;;;26.53;41.82;99440.74;1747867;82;21176;-81
2022/08/14 05:53:48;;;;;;;13.93;5.20;;;;;;;26.59;41.81;99447.39;1747459;82;21189;-81
2022/08/14 05:56:48;;;;;;;21.05;5.35;;;;;;;26.65;40.38;99436.36;1747631;82;21145;-80
2022/08/14 05:59:42;;;;;;;12.75;5.33;;;;;;;26.67;40.09;99438.27;1747304;82;21172;-80
2022/08/14 06:02:50;;;;;;;18.45;5.33;;;;;;;26.70;39.85;99434.04;1747831;82;21204;-80
2022/08/14 06:05:59;;;;;;;17.87;5.33;;;;;;;26.69;40.49;99440.22;1747849;82;21175;-81
2022/08/14 06:09:09;;;;;;;17.10;4.78;;;;;;;26.73;40.60;99442.69;1748897;82;21176;-81
2022/08/14 06:12:16;;;;;;;17.82;5.62;;;;;;;26.79;40.31;99438.40;1747379;82;21196;-81
2022/08/14 06:15:24;;;;;;;16.52;4.83;;;;;;;26.85;40.70;99435.77;1747964;82;21200;-81
2022/08/14 06:18:29;;;;;;;14.68;4.53;;;;;;;26.99;40.29;99435.25;1747776;82;21263;-81
2022/08/14 06:21:36;;;;;;;17.92;5.55;;;;;;;27.07;39.86;99435.97;1747595;82;21196;-81
2022/08/14 06:24:43;;;;;;;19.07;5.28;;;;;;;27.09;39.27;99439.31;1748706;82;21258;-81
2022/08/14 06:27:54;;;;;;;21.85;5.28;;;;;;;27.16;39.70;99426.31;1748220;82;21250;-82
2022/08/14 06:31:03;;;;;;;27.60;5.37;;;;;;;27.19;39.25;99429.31;1748839;82;21201;-81
2022/08/14 06:34:08;;;;;;;11.53;5.00;;;;;;;27.26;39.41;99436.78;1735355;82;21137;-81
2022/08/14 06:37:17;;;;;;;15.63;4.97;;;;;;;27.28;38.94;99441.25;1771521;81;21149;-82
2022/08/14 06:40:26;;;;;;;18.75;4.62;;;;;;;27.28;38.75;99440.67;1772347;81;21213;-82
2022/08/14 06:43:32;;;;;;;14.33;4.67;;;;;;;27.30;38.83;99427.18;1771389;81;21181;-81
2022/08/14 06:46:40;;;;;;;18.67;4.85;;;;;;;27.38;39.47;99437.67;1772120;81;21162;-82
2022/08/14 06:49:47;;;;;;;19.15;4.95;;;;;;;27.47;39.30;99439.20;1772377;81;21216;-82
2022/08/14 06:52:55;;;;;;;21.52;5.40;;;;;;;27.58;39.52;99444.08;1771676;81;21288;-81
2022/08/14 06:56:03;;;;;;;18.37;5.65;;;;;;;27.73;38.64;99444.64;1772167;81;21161;-81
2022/08/14 06:59:09;;;;;;;13.43;4.80;;;;;;;27.84;38.64;99443.86;1772162;81;21177;-82
2022/08/14 07:08:51;;;;;;;14.73;4.97;;;;;;;28.36;37.48;99438.86;1770927;81;21193;-82
2022/08/14 07:11:58;;;;;;;11.95;4.35;;;;;;;28.53;37.19;99443.25;1772556;81;21698;-81
2022/08/14 07:15:05;;;;;;;14.35;5.33;;;;;;;28.69;37.16;99431.06;1772378;81;21150;-81
2022/08/14 07:18:12;;;;;;;10.80;4.75;;;;;;;28.92;36.07;99445.16;1771498;81;21702;-81
2022/08/14 07:21:18;;;;;;;17.15;5.17;;;;;;;29.16;35.98;99449.09;1772199;81;21179;-81
2022/08/14 07:24:24;;;;;;;18.37;4.75;;;;;;;29.35;34.66;99447.47;1771055;81;21178;-81
2022/08/14 07:27:30;;;;;;;10.75;4.62;;;;;;;29.41;34.42;99447.04;1772064;81;21241;-82
2022/08/14 07:30:38;;;;;;;9.65;4.40;;;;;;;29.46;35.12;99454.52;1772307;81;21158;-80
2022/08/14 07:33:52;;;;;;;12.25;5.30;;;;;;;29.46;35.12;99454.52;1771017;81;21735;-82
2022/08/14 07:36:59;;;;;;;16.40;4.62;;;;;;;29.63;33.83;99464.48;1771675;81;21861;-81
2022/08/14 07:40:04;;;;;;;16.65;4.87;;;;;;;29.70;34.30;99451.36;1770709;81;21153;-81
2022/08/14 07:43:12;;;;;;;13.10;5.15;;;;;;;29.70;34.30;99451.36;1770759;81;21758;-82
2022/08/14 07:46:21;;;;;;;11.65;4.72;;;;;;;29.76;33.94;99441.61;1772327;81;21170;-81
2022/08/14 07:49:28;;;;;;;;;;;;;;;29.78;34.18;99448.59;1752264;81;21151;-82
2022/08/14 07:52:35;;;;;;;24.47;6.37;;;;;;;29.81;34.10;99449.91;1771544;81;20166;-81
2022/08/14 07:55:42;;;;;;;14.25;4.53;;;;;;;29.81;33.41;99456.12;1770898;81;21770;-82
2022/08/14 07:58:49;;;;;;;18.20;4.12;;;;;;;29.77;33.78;99465.80;1771847;81;21185;-82
2022/08/14 08:01:56;;;;;;;16.30;4.35;;;;;;;29.73;34.44;99461.39;1772195;81;21122;-81
2022/08/14 08:05:02;;;;;;;18.85;4.92;;;;;;;29.76;34.16;99441.02;1770985;81;21229;-82
2022/08/14 08:08:08;;;;;;;17.90;4.97;;;;;;;29.76;34.16;99441.02;1766792;81;21173;-81
2022/08/14 08:11:18;;;;;;;20.17;4.92;;;;;;;29.89;35.19;99453.35;1703735;84;21746;-81
2022/08/14 08:14:25;;;;;;;13.20;4.15;;;;;;;29.98;34.65;99450.58;1768619;81;21178;-80
2022/08/14 08:17:33;;;;;;;16.40;4.83;;;;;;;30.05;34.67;99444.69;1768771;81;21203;-82
2022/08/14 08:20:43;;;;;;;14.35;4.83;;;;;;;30.15;34.03;99439.94;1703616;84;21185;-81
2022/08/14 08:23:49;;;;;;;23.65;4.78;;;;;;;30.23;34.27;99432.09;1740341;82;21767;-82
2022/08/14 08:26:55;;;;;;;13.35;4.72;;;;;;;30.34;34.51;99430.61;1740753;82;21159;-82
2022/08/14 08:30:12;;;;;;;8.80;3.87;;;;;;;30.42;34.44;99423.34;1740407;82;21803;-82
2022/08/14 08:33:16;;;;;;;21.73;5.30;;;;;;;30.62;35.30;99433.97;1740655;82;21187;-82
2022/08/14 08:36:23;;;;;;;20.27;4.85;;;;;;;30.86;34.34;99424.21;1742347;81;21692;-80
2022/08/14 08:39:29;;;;;;;10.95;4.58;;;;;;;31.00;34.52;99415.81;1704271;84;21241;-81
2022/08/14 08:42:36;;;;;;;14.15;4.65;;;;;;;31.11;33.89;99416.31;1769716;81;21197;-81
2022/08/14 08:45:43;;;;;;;15.08;4.60;;;;;;;31.20;33.43;99405.84;1703385;84;21238;-81
2022/08/14 08:49:00;;;;;;;18.00;4.53;;;;;;;31.23;33.83;99405.14;1769377;81;21193;-81
2022/08/14 08:52:08;;;;;;;13.55;4.80;;;;;;;31.40;33.18;99411.38;1704599;84;21508;-81
2022/08/14 08:55:16;;;;;;;9.45;4.50;;;;;;;31.51;31.35;99399.12;1769014;81;21192;-81
2022/08/14 08:58:24;;;;;;;10.78;5.22;;;;;;;31.60;28.72;99403.33;1703839;84;21256;-81
2022/08/14 09:01:37;;;;;;;11.88;4.92;;;;;;;31.70;29.45;99405.19;1749166;81;21177;-82
2022/08/14 09:04:49;;;;;;;17.15;4.80;;;;;;;31.84;28.04;99410.66;1704073;84;21786;-82
2022/08/14 09:07:55;;;;;;;13.32;4.87;;;;;;;31.95;27.86;99415.36;1769302;81;21702;-82
2022/08/14 09:11:02;;;;;;;17.60;5.50;;;;;;;31.98;27.34;99418.91;1704657;84;21240;-82
2022/08/14 09:14:08;;;;;;;17.48;4.90;;;;;;;31.93;27.98;99400.13;1770588;81;21700;-82
2022/08/14 09:17:09;;;;;;;20.10;5.75;;;;;;;32.05;28.83;99417.21;1704448;84;21224;-83
2022/08/14 09:20:17;;;;;;;12.28;4.58;;;;;;;32.30;28.52;99407.48;1770580;81;21201;-83
2022/08/14 09:23:24;;;;;;;15.00;4.97;;;;;;;32.50;27.06;99418.02;1704068;84;21245;-82
2022/08/14 09:26:32;;;;;;;11.35;5.17;;;;;;;32.50;26.93;99409.53;1770384;81;21173;-81
2022/08/14 09:29:38;;;;;;;14.35;5.20;;;;;;;32.50;26.57;99364.84;1704392;84;21229;-82
2022/08/14 09:33:12;;;;;;;18.27;5.28;;;;;;;32.51;26.69;99396.20;1770179;81;21205;-82
2022/08/14 09:36:45;;;;;;;10.25;5.00;;;;;;;32.55;26.74;99416.40;1704202;84;21849;-82
2022/08/14 09:40:10;;;;;;;11.05;5.15;;;;;;;32.55;27.14;99403.66;1735812;82;21248;-82
2022/08/14 09:43:36;;;;;;;16.95;5.00;;;;;;;32.60;26.59;99399.80;1706787;84;21193;-82
2022/08/14 09:46:30;;;;;;;18.75;5.65;;;;;;;32.58;26.80;99391.42;1706541;84;21205;-83
2022/08/14 09:49:44;;;;;;;16.45;5.30;;;;;;;32.53;26.82;99404.61;1707976;84;21233;-82
2022/08/14 09:53:02;;;;;;;17.05;5.30;;;;;;;32.50;26.91;99398.80;1707035;84;21188;-82
2022/08/14 09:56:10;;;;;;;17.85;5.17;;;;;;;32.54;26.57;99402.02;1706399;84;21173;-82
2022/08/14 09:59:23;;;;;;;14.43;4.95;;;;;;;32.63;27.71;99397.70;1707287;84;21224;-82
2022/08/14 10:02:36;;;;;;;15.75;5.28;;;;;;;32.72;27.04;99394.22;1707537;84;21212;-82
2022/08/14 10:05:44;;;;;;;10.58;4.70;;;;;;;32.76;27.27;99383.86;1707134;84;21232;-82
2022/08/14 10:09:01;;;;;;;15.23;5.42;;;;;;;32.83;27.84;99400.28;1706628;84;21197;-81
2022/08/14 10:12:10;;;;;;;11.30;5.22;;;;;;;32.87;27.10;99387.67;1707722;84;21209;-82
2022/08/14 10:15:29;;;;;;;16.32;4.95;;;;;;;32.88;27.94;99394.98;1706393;84;21252;-82
2022/08/14 10:18:34;;;;;;;11.57;5.22;;;;;;;32.93;27.25;99396.22;1706736;84;21293;-82
2022/08/14 10:21:39;;;;;;;16.77;5.87;;;;;;;32.95;26.42;99397.55;1706351;84;21157;-82
2022/08/14 10:24:50;;;;;;;12.20;5.65;;;;;;;32.96;25.69;99380.78;1706041;84;21752;-82
2022/08/14 10:28:05;;;;;;;18.12;6.35;;;;;;;32.94;26.37;99390.81;1707208;84;21212;-82
2022/08/14 10:31:26;;;;;;;13.58;4.65;;;;;;;32.92;26.50;99384.66;1707118;84;21212;-82
2022/08/14 10:34:42;;;;;;;8.95;4.95;;;;;;;32.94;25.28;99371.00;1707623;84;21225;-82
2022/08/14 10:37:57;;;;;;;11.93;4.97;;;;;;;33.01;24.88;99379.73;1704488;82;21205;-82
2022/08/14 10:41:16;;;;;;;13.30;5.40;;;;;;;33.05;24.60;99391.44;1770675;81;21212;-82
2022/08/14 10:44:28;;;;;;;12.73;5.35;;;;;;;33.10;24.69;99394.64;1770630;81;21201;-82
2022/08/14 10:47:42;;;;;;;10.70;4.92;;;;;;;33.24;23.83;99385.24;1704167;84;21221;-81
2022/08/14 10:50:52;;;;;;;15.28;5.45;;;;;;;33.31;24.25;99395.43;1770483;81;21157;-82
2022/08/14 10:54:03;;;;;;;8.83;4.65;;;;;;;33.42;23.26;99396.39;1703622;84;21185;-81
2022/08/14 10:57:35;;;;;;;9.95;4.35;;;;;;;33.41;24.09;99392.73;1769346;81;21169;-81
2022/08/14 11:00:41;;;;;;;14.05;4.60;;;;;;;33.40;24.41;99386.80;1704779;84;21178;-82
2022/08/14 11:03:50;;;;;;;13.50;4.83;;;;;;;33.48;23.65;99399.27;1769250;81;21232;-82
2022/08/14 11:07:02;;;;;;;11.15;4.75;;;;;;;33.48;23.36;99397.25;1703975;84;21213;-81
2022/08/14 11:10:14;;;;;;;14.00;5.42;;;;;;;33.44;24.12;99384.13;1770366;81;21185;-81
2022/08/14 11:13:30;;;;;;;11.28;4.72;;;;;;;33.43;24.19;99396.06;1704351;84;21260;-81
2022/08/14 11:16:40;;;;;;;9.25;4.75;;;;;;;33.38;24.14;99397.67;1770129;81;21718;-82
2022/08/14 11:19:44;;;;;;;;;;;;;;;33.35;24.99;99381.95;1773342;81;21173;-81
2022/08/14 11:22:53;;;;;;;9.73;5.00;;;;;;;33.51;24.04;99388.65;1770061;81;20187;-81
2022/08/14 11:26:00;;;;;;;9.78;4.50;;;;;;;33.55;24.76;99384.76;1703772;84;21852;-82
2022/08/14 11:29:08;;;;;;;10.60;4.53;;;;;;;33.62;24.79;99385.58;1770736;81;21142;-82
2022/08/14 11:32:14;;;;;;;9.30;4.67;;;;;;;33.64;24.71;99378.95;1704492;84;21237;-81
2022/08/14 11:35:25;;;;;;;12.35;4.75;;;;;;;33.62;24.67;99373.42;1770899;81;21698;-82
2022/08/14 11:38:31;;;;;;;13.53;5.12;;;;;;;33.62;24.11;99374.24;1764395;81;21197;-82
2022/08/14 11:41:40;;;;;;;9.65;5.12;;;;;;;33.63;24.70;99381.56;1684157;85;21216;-82
2022/08/14 11:44:48;;;;;;;15.68;4.97;;;;;;;33.67;24.68;99378.26;1683649;83;21197;-82
2022/08/14 11:47:55;;;;;;;11.35;4.95;;;;;;;33.65;25.03;99372.13;1712636;83;21833;-82
2022/08/14 11:51:01;;;;;;;13.65;4.83;;;;;;;33.65;25.34;99370.71;1713096;83;21229;-82
2022/08/14 11:54:11;;;;;;;14.40;5.40;;;;;;;33.65;25.25;99369.89;1704989;83;21531;-82
2022/08/14 11:57:22;;;;;;;12.53;5.35;;;;;;;33.62;25.82;99365.73;1682433;84;21506;-82
2022/08/14 12:00:29;;;;;;;8.35;5.00;;;;;;;33.64;24.07;99366.20;1683762;85;21196;-81
2022/08/14 12:03:46;;;;;;;8.98;4.90;;;;;;;33.71;23.11;99359.37;1682748;84;21868;-82
2022/08/14 12:07:02;;;;;;;14.33;4.90;;;;;;;33.80;23.65;99364.33;1683650;84;21211;-81
2022/08/14 12:10:09;;;;;;;14.70;4.47;;;;;;;33.83;22.39;99359.38;1706918;83;21162;-82
2022/08/14 12:13:26;;;;;;;13.45;4.67;;;;;;;33.94;23.50;99360.31;1650384;87;21898;-81
2022/08/14 12:16:34;;;;;;;7.35;4.55;;;;;;;34.06;22.39;99351.81;1668388;86;21234;-81
2022/08/14 12:19:57;;;;;;;8.45;5.10;;;;;;;34.16;22.85;99347.09;1681112;85;21188;-81
2022/08/14 12:23:03;;;;;;;18.05;4.83;;;;;;;34.24;23.09;99350.96;1680424;85;21251;-81
2022/08/14 12:26:16;;;;;;;10.23;4.90;;;;;;;34.27;22.91;99351.08;1704544;84;21242;-81
2022/08/14 12:29:24;;;;;;;10.10;4.60;;;;;;;34.25;22.61;99351.19;1704775;84;21191;-81
2022/08/14 12:32:31;;;;;;;9.78;5.60;;;;;;;34.18;22.35;99351.80;1705427;84;21250;-80
2022/08/14 12:35:50;;;;;;;7.55;4.90;;;;;;;34.06;22.29;99348.97;1704351;84;21218;-81
2022/08/14 12:38:56;;;;;;;14.65;5.03;;;;;;;33.96;22.61;99346.03;1707505;83;21728;-82
2022/08/14 12:42:09;;;;;;;13.62;5.30;;;;;;;33.86;23.03;99345.66;1726663;82;21180;-81
2022/08/14 12:45:19;;;;;;;10.40;5.20;;;;;;;33.72;22.71;99341.16;1726534;83;21179;-81
2022/08/14 12:48:27;;;;;;;12.13;6.00;;;;;;;33.65;22.83;99343.78;1726697;83;21209;-81
2022/08/14 12:51:34;;;;;;;8.30;4.90;;;;;;;33.63;23.12;99333.96;1725859;83;21200;-81
2022/08/14 12:54:40;;;;;;;9.93;5.10;;;;;;;33.61;22.78;99328.66;1727313;83;21204;-81
2022/08/14 12:57:54;;;;;;;10.35;4.62;;;;;;;33.57;22.91;99334.79;1725153;83;21263;-81
2022/08/14 13:01:02;;;;;;;13.48;5.50;;;;;;;33.51;23.70;99328.53;1727247;83;21191;-81
2022/08/14 13:04:20;;;;;;;11.65;5.35;;;;;;;33.49;23.84;99326.62;1727313;83;21204;-81
2022/08/14 13:07:25;;;;;;;9.83;5.10;;;;;;;33.52;23.86;99325.10;1726651;83;21824;-82
2022/08/14 13:10:31;;;;;;;12.53;5.47;;;;;;;33.54;24.20;99325.56;1727279;83;21188;-81
2022/08/14 13:13:39;;;;;;;10.65;5.28;;;;;;;33.51;23.78;99325.70;1725940;82;21241;-81
2022/08/14 13:16:47;;;;;;;9.15;5.03;;;;;;;33.48;24.04;99322.73;1725762;83;21724;-82
2022/08/14 13:19:55;;;;;;;13.15;5.30;;;;;;;33.46;24.21;99321.68;1725969;83;21195;-81
2022/08/14 13:23:06;;;;;;;17.52;5.22;;;;;;;33.43;24.25;99320.14;1725920;83;21207;-81
2022/08/14 13:26:14;;;;;;;8.70;4.75;;;;;;;33.39;24.68;99313.48;1725772;83;21251;-81
2022/08/14 13:29:22;;;;;;;15.20;5.65;;;;;;;33.39;24.84;99320.56;1726273;83;21211;-81
2022/08/14 13:32:31;;;;;;;9.38;4.85;;;;;;;33.37;25.38;99318.09;1726772;83;21823;-82
2022/08/14 13:35:37;;;;;;;14.78;5.65;;;;;;;33.31;25.48;99316.65;1727328;83;21752;-82
2022/08/14 13:38:43;;;;;;;19.10;5.95;;;;;;;33.21;25.28;99313.69;1722463;83;21179;-81
2022/08/14 13:41:51;;;;;;;16.70;6.50;;;;;;;33.16;25.52;99321.00;1693156;85;21731;-82
2022/08/14 13:44:59;;;;;;;34.88;8.45;;;;;;;33.09;25.86;99317.92;1693746;85;21191;-82
2022/08/14 13:47:57;;;;;;;17.10;7.30;;;;;;;33.03;26.02;99322.14;1692811;85;21218;-82
2022/08/14 13:51:03;;;;;;;11.70;6.87;;;;;;;33.01;26.05;99324.51;1693699;85;21747;-81
2022/08/14 13:54:10;;;;;;;16.00;6.65;;;;;;;33.01;25.40;99321.67;1693323;85;21222;-79
2022/08/14 13:57:19;;;;;;;15.78;7.25;;;;;;;33.01;25.15;99323.09;1693572;85;21723;-80
2022/08/14 14:00:27;;;;;;;16.55;7.67;;;;;;;32.96;25.46;99319.06;1679511;85;21222;-80
2022/08/14 14:03:36;;;;;;;16.45;7.30;;;;;;;32.91;25.54;99322.95;1691948;85;21763;-80
2022/08/14 14:06:42;;;;;;;13.75;7.03;;;;;;;32.90;25.50;99314.78;1692442;85;21246;-80
2022/08/14 14:09:53;;;;;;;16.57;8.08;;;;;;;32.85;25.70;99315.83;1692369;85;21225;-80
2022/08/14 14:13:00;;;;;;;16.97;7.42;;;;;;;32.83;25.79;99312.50;1693344;85;21194;-80
2022/08/14 14:16:07;;;;;;;17.60;7.78;;;;;;;32.87;26.08;99322.55;1692597;85;21203;-81
2022/08/14 14:19:14;;;;;;;24.87;7.42;;;;;;;32.91;26.35;99316.46;1693297;85;21238;-81
2022/08/14 14:22:22;;;;;;;25.08;8.20;;;;;;;32.97;26.50;99311.62;1684563;85;21227;-80
2022/08/14 14:25:29;;;;;;;17.55;7.33;;;;;;;33.01;26.91;99311.17;1665257;86;21214;-79
2022/08/14 14:28:37;;;;;;;30.82;8.58;;;;;;;33.03;30.20;99317.89;1664703;86;21259;-80
2022/08/14 14:31:43;;;;;;;24.37;7.53;;;;;;;32.99;30.37;99316.97;1664755;85;21213;-80
2022/08/14 14:34:48;;;;;;;16.37;6.97;;;;;;;32.98;31.22;99312.45;1688926;85;21701;-80
2022/08/14 14:37:49;;;;;;;19.10;7.45;;;;;;;32.90;30.39;99311.39;1693408;84;21267;-80
2022/08/14 14:40:56;;;;;;;24.87;7.00;;;;;;;32.87;29.68;99308.39;1695500;83;21563;-80
2022/08/14 14:44:05;;;;;;;22.20;7.07;;;;;;;32.84;30.33;99309.90;1698732;83;21226;-80
2022/08/14 14:47:16;;;;;;;19.98;7.37;;;;;;;32.78;30.36;99311.30;1697970;83;21198;-80
2022/08/14 14:50:22;;;;;;;26.95;8.55;;;;;;;32.69;28.18;99307.73;1697852;84;21182;-80